Time;durP1;ratioP1;P1;durP2;ratioP2;P2;SDS_P1;SDS_P2;PMS_P1;PMS_P2;Temp;Humidity;BMP_temperature;BMP_pressure;BME280_temperature;BME280_humidity;BME280_pressure;Samples;Min_cycle;Max_cycle;Signal;HPM_P1;HPM_P2
2021/08/20 00:00:48;;;;;;;0.60;0.60;;;24.30;55.70;;;;;;6314200;28;20031;-70
2021/08/20 00:03:49;;;;;;;0.60;0.60;;;24.30;56.40;;;;;;6326253;28;20034;-70
2021/08/20 00:06:49;;;;;;;1.05;0.77;;;24.30;55.70;;;;;;6316657;28;20489;-71
2021/08/20 00:09:51;;;;;;;0.70;0.70;;;24.30;55.70;;;;;;6332100;28;20037;-70
2021/08/20 00:12:52;;;;;;;0.90;0.80;;;24.30;55.70;;;;;;6341557;28;20343;-71
2021/08/20 00:15:52;;;;;;;1.02;0.80;;;24.30;55.70;;;;;;6330196;28;20553;-70
2021/08/20 00:18:53;;;;;;;1.00;0.90;;;24.30;55.70;;;;;;6326300;28;20024;-70
2021/08/20 00:21:53;;;;;;;0.85;0.77;;;24.30;55.70;;;;;;6317686;28;20050;-69
2021/08/20 00:24:54;;;;;;;1.35;0.75;;;24.30;55.80;;;;;;6331225;28;20028;-70
2021/08/20 00:27:55;;;;;;;0.70;0.70;;;24.30;55.70;;;;;;6314697;28;20051;-70
2021/08/20 00:30:55;;;;;;;0.57;0.57;;;24.30;55.70;;;;;;6316066;28;20062;-70
2021/08/20 00:33:56;;;;;;;1.10;0.90;;;24.30;55.70;;;;;;6328559;28;20118;-69
2021/08/20 00:36:56;;;;;;;0.50;0.50;;;24.30;55.70;;;;;;6340675;28;20036;-71
2021/08/20 00:39:57;;;;;;;1.15;0.73;;;24.30;55.70;;;;;;6340846;28;20019;-71
2021/08/20 00:42:58;;;;;;;0.70;0.60;;;24.30;55.80;;;;;;6337716;28;20028;-70
2021/08/20 00:46:00;;;;;;;0.55;0.55;;;24.30;55.80;;;;;;6315982;28;20028;-70
2021/08/20 00:49:01;;;;;;;0.60;0.47;;;24.30;55.80;;;;;;6315338;28;20153;-70
2021/08/20 00:52:02;;;;;;;0.68;0.65;;;24.30;55.70;;;;;;6316058;28;20024;-70
2021/08/20 00:55:05;;;;;;;0.77;0.70;;;24.30;55.80;;;;;;6335202;28;20042;-70
2021/08/20 00:58:06;;;;;;;0.85;0.73;;;24.30;55.80;;;;;;6339649;28;20392;-70
2021/08/20 01:01:06;;;;;;;0.80;0.65;;;24.30;55.80;;;;;;6315029;28;20055;-70
2021/08/20 01:04:08;;;;;;;0.75;0.75;;;24.30;55.70;;;;;;6318039;28;20111;-70
2021/08/20 01:07:09;;;;;;;0.63;0.63;;;24.30;55.80;;;;;;6335125;28;20054;-70
2021/08/20 01:10:12;;;;;;;0.73;0.65;;;24.30;55.80;;;;;;6327194;28;20068;-70
2021/08/20 01:13:12;;;;;;;1.10;0.65;;;24.30;55.80;;;;;;6315546;28;20077;-70
2021/08/20 01:16:13;;;;;;;0.63;0.57;;;24.30;55.80;;;;;;6339304;28;20036;-71
2021/08/20 01:19:14;;;;;;;0.68;0.57;;;24.30;55.80;;;;;;6345912;28;20051;-69
2021/08/20 01:22:14;;;;;;;0.77;0.70;;;24.30;55.80;;;;;;6344514;28;20023;-70
2021/08/20 01:25:15;;;;;;;0.63;0.60;;;24.30;55.80;;;;;;6346028;28;20027;-70
2021/08/20 01:28:15;;;;;;;0.77;0.60;;;24.30;55.80;;;;;;6346503;28;20035;-69
2021/08/20 01:31:17;;;;;;;0.60;0.60;;;24.30;55.80;;;;;;6325879;28;20038;-70
2021/08/20 01:34:17;;;;;;;0.65;0.60;;;24.30;55.80;;;;;;6320909;28;20028;-70
2021/08/20 01:37:18;;;;;;;0.75;0.57;;;24.30;55.80;;;;;;6318917;28;20098;-70
2021/08/20 01:40:19;;;;;;;0.60;0.60;;;24.30;55.80;;;;;;6330549;28;20028;-70
2021/08/20 01:43:21;;;;;;;1.00;0.70;;;24.30;55.80;;;;;;6344340;28;20028;-70
2021/08/20 01:46:21;;;;;;;0.60;0.57;;;24.30;55.80;;;;;;6345580;28;20024;-70
2021/08/20 01:49:22;;;;;;;0.60;0.60;;;24.30;55.80;;;;;;6344601;28;20037;-70
2021/08/20 01:52:22;;;;;;;0.70;0.70;;;24.30;55.80;;;;;;6319539;28;20433;-70
2021/08/20 01:55:23;;;;;;;0.70;0.65;;;24.30;55.80;;;;;;6320059;28;20217;-70
2021/08/20 01:58:24;;;;;;;0.50;0.50;;;24.30;55.90;;;;;;6318476;28;20378;-70
2021/08/20 02:01:25;;;;;;;0.70;0.70;;;24.30;55.80;;;;;;6319724;28;20366;-70
2021/08/20 02:04:26;;;;;;;0.70;0.60;;;24.30;55.80;;;;;;6320120;28;20491;-70
2021/08/20 02:07:26;;;;;;;0.73;0.55;;;24.40;55.90;;;;;;6320137;28;20032;-70
2021/08/20 02:10:27;;;;;;;0.55;0.55;;;24.30;55.80;;;;;;6326163;28;20479;-70
2021/08/20 02:13:28;;;;;;;0.55;0.50;;;24.30;55.80;;;;;;6340918;28;20088;-70
2021/08/20 02:16:29;;;;;;;0.73;0.70;;;24.30;55.80;;;;;;6318763;28;20032;-70
2021/08/20 02:19:29;;;;;;;0.70;0.60;;;24.30;55.80;;;;;;6319793;28;20020;-70
2021/08/20 02:22:30;;;;;;;0.60;0.60;;;24.30;55.80;;;;;;6319541;28;20024;-70
2021/08/20 02:25:31;;;;;;;0.88;0.70;;;24.30;55.80;;;;;;6318762;28;20124;-70
2021/08/20 02:28:31;;;;;;;0.93;0.70;;;24.30;55.90;;;;;;6318893;28;20154;-70
2021/08/20 02:31:32;;;;;;;1.58;0.60;;;24.30;55.80;;;;;;6331659;28;20110;-70
2021/08/20 02:34:33;;;;;;;0.63;0.60;;;24.30;55.80;;;;;;6344294;28;20396;-72
2021/08/20 02:37:33;;;;;;;0.57;0.55;;;24.30;55.80;;;;;;6344008;28;20023;-70
2021/08/20 02:40:34;;;;;;;0.68;0.63;;;24.40;55.90;;;;;;6344051;28;20468;-70
2021/08/20 02:43:34;;;;;;;0.60;0.60;;;24.30;55.80;;;;;;6321574;28;20413;-70
2021/08/20 02:46:36;;;;;;;0.70;0.70;;;24.30;55.90;;;;;;6329688;28;20058;-70
2021/08/20 02:49:36;;;;;;;1.15;0.70;;;24.30;55.80;;;;;;6344024;28;20106;-69
2021/08/20 02:52:37;;;;;;;0.85;0.70;;;24.30;55.80;;;;;;6323714;28;20032;-70
2021/08/20 02:55:37;;;;;;;0.50;0.40;;;24.30;55.80;;;;;;6320295;28;20047;-70
2021/08/20 02:58:38;;;;;;;0.57;0.50;;;24.30;55.90;;;;;;6343431;28;20023;-70
2021/08/20 03:01:38;;;;;;;0.60;0.57;;;24.30;55.90;;;;;;6343542;28;20027;-70
2021/08/20 03:04:39;;;;;;;0.60;0.60;;;24.40;56.00;;;;;;6331209;28;20425;-70
2021/08/20 03:07:41;;;;;;;0.70;0.50;;;24.30;55.90;;;;;;6332599;28;20027;-70
2021/08/20 03:10:42;;;;;;;0.50;0.50;;;24.30;55.90;;;;;;6343445;28;20496;-70
2021/08/20 03:13:43;;;;;;;0.60;0.60;;;24.30;55.90;;;;;;6338429;28;20012;-70
2021/08/20 03:16:43;;;;;;;0.60;0.60;;;24.30;55.90;;;;;;6317586;28;20227;-70
2021/08/20 03:19:45;;;;;;;0.70;0.70;;;24.30;55.90;;;;;;6317912;28;20024;-70
2021/08/20 03:22:45;;;;;;;0.60;0.60;;;24.30;55.90;;;;;;6328459;28;20069;-70
2021/08/20 03:25:46;;;;;;;0.70;0.60;;;24.30;55.90;;;;;;6342069;28;20369;-70
2021/08/20 03:28:47;;;;;;;0.93;0.70;;;24.30;55.90;;;;;;6320654;28;20103;-70
2021/08/20 03:31:48;;;;;;;0.90;0.65;;;24.30;55.90;;;;;;6322155;28;20023;-70
2021/08/20 03:34:50;;;;;;;0.57;0.57;;;24.30;55.90;;;;;;6343105;28;20032;-70
2021/08/20 03:37:50;;;;;;;0.68;0.60;;;24.30;55.90;;;;;;6341788;28;20289;-70
2021/08/20 03:40:51;;;;;;;0.50;0.50;;;24.40;56.00;;;;;;6342410;28;20032;-70
2021/08/20 03:43:52;;;;;;;0.80;0.63;;;24.30;55.90;;;;;;6342184;28;20027;-70
2021/08/20 03:46:52;;;;;;;0.68;0.68;;;24.30;55.90;;;;;;6339881;28;20032;-69
2021/08/20 03:49:53;;;;;;;0.60;0.60;;;24.30;55.90;;;;;;6317295;28;20035;-69
2021/08/20 03:52:53;;;;;;;0.60;0.50;;;24.30;55.90;;;;;;6326957;28;20027;-70
2021/08/20 03:55:54;;;;;;;0.43;0.43;;;24.30;55.90;;;;;;6342196;28;20047;-70
2021/08/20 03:58:55;;;;;;;0.43;0.40;;;24.30;56.00;;;;;;6341588;28;20096;-70
2021/08/20 04:01:55;;;;;;;0.98;0.73;;;24.30;55.90;;;;;;6339512;28;20027;-70
2021/08/20 04:04:56;;;;;;;0.65;0.63;;;24.30;55.90;;;;;;6317248;28;20016;-70
2021/08/20 04:07:56;;;;;;;3.00;0.60;;;24.30;56.00;;;;;;6324202;28;20111;-70
2021/08/20 04:10:57;;;;;;;0.60;0.60;;;24.30;55.90;;;;;;6340351;28;20031;-70
2021/08/20 04:14:01;;;;;;;0.60;0.52;;;24.30;55.90;;;;;;6324031;28;20039;-70
2021/08/20 04:17:02;;;;;;;0.60;0.60;;;24.30;56.00;;;;;;6316697;28;20488;-70
2021/08/20 04:20:03;;;;;;;0.63;0.50;;;24.30;56.00;;;;;;6314869;28;20028;-70
2021/08/20 04:23:05;;;;;;;0.57;0.50;;;24.30;56.00;;;;;;6323592;28;20099;-70
2021/08/20 04:26:06;;;;;;;1.67;0.70;;;24.30;55.90;;;;;;6341724;28;20023;-69
2021/08/20 04:29:06;;;;;;;0.50;0.50;;;24.30;55.90;;;;;;6327359;28;20024;-68
2021/08/20 04:32:07;;;;;;;0.50;0.50;;;24.30;55.90;;;;;;6310097;28;20031;-68
2021/08/20 04:35:08;;;;;;;6.70;1.33;;;24.30;56.00;;;;;;6316632;28;20036;-70
2021/08/20 04:38:08;;;;;;;2.90;0.90;;;24.30;55.60;;;;;;6317022;28;20024;-69
2021/08/20 04:41:09;;;;;;;1.98;1.00;;;24.30;55.70;;;;;;6317195;28;20016;-70
2021/08/20 04:44:10;;;;;;;4.72;0.90;;;24.30;55.80;;;;;;6314898;28;20161;-69
2021/08/20 04:47:10;;;;;;;3.63;1.17;;;24.30;55.90;;;;;;6314429;28;20031;-69
2021/08/20 04:50:12;;;;;;;1.52;1.10;;;24.30;56.00;;;;;;6316179;28;20028;-69
2021/08/20 04:53:13;;;;;;;1.80;0.75;;;24.40;55.90;;;;;;6316500;28;20020;-69
2021/08/20 04:56:13;;;;;;;2.42;1.00;;;24.40;55.90;;;;;;6316896;28;20381;-70
2021/08/20 04:59:15;;;;;;;4.28;1.10;;;24.40;55.80;;;;;;6316985;28;20051;-69
2021/08/20 05:02:16;;;;;;;4.50;1.38;;;24.40;55.80;;;;;;6315512;28;20024;-68
2021/08/20 05:05:16;;;;;;;1.90;1.02;;;24.40;55.90;;;;;;6315490;28;20103;-69
2021/08/20 05:08:17;;;;;;;2.95;1.10;;;24.40;55.90;;;;;;6316607;28;20314;-70
2021/08/20 05:11:18;;;;;;;3.20;1.33;;;24.40;56.00;;;;;;6317175;28;20160;-70
2021/08/20 05:14:18;;;;;;;1.88;1.05;;;24.40;56.00;;;;;;6317000;28;20025;-70
2021/08/20 05:17:19;;;;;;;1.60;0.93;;;24.40;56.00;;;;;;6315067;28;20024;-70
2021/08/20 05:20:20;;;;;;;2.25;1.30;;;24.40;56.10;;;;;;6330944;28;20349;-70
2021/08/20 05:23:20;;;;;;;1.92;1.10;;;24.40;56.10;;;;;;6339262;28;20019;-70
2021/08/20 05:26:21;;;;;;;6.95;1.20;;;24.40;56.20;;;;;;6315591;28;20540;-70
2021/08/20 05:29:21;;;;;;;1.63;1.13;;;24.40;56.20;;;;;;6322063;28;20106;-70
2021/08/20 05:32:22;;;;;;;4.60;1.02;;;24.40;56.20;;;;;;6339695;28;20028;-70
2021/08/20 05:35:23;;;;;;;2.03;1.10;;;24.40;56.20;;;;;;6325414;28;20388;-70
2021/08/20 05:38:23;;;;;;;3.55;1.27;;;24.40;56.20;;;;;;6314849;28;20123;-70
2021/08/20 05:41:24;;;;;;;2.00;1.00;;;24.40;56.20;;;;;;6337440;28;20023;-70
2021/08/20 05:44:24;;;;;;;4.40;1.60;;;24.40;56.20;;;;;;6340605;28;20031;-70
2021/08/20 05:47:25;;;;;;;1.35;0.88;;;24.40;56.20;;;;;;6340904;28;20517;-70
2021/08/20 05:50:25;;;;;;;1.25;0.80;;;24.40;56.20;;;;;;6325924;28;20024;-70
2021/08/20 05:53:26;;;;;;;4.10;0.90;;;24.40;56.20;;;;;;6313223;28;20568;-70
2021/08/20 05:56:27;;;;;;;2.13;1.00;;;24.40;56.20;;;;;;6335085;28;20058;-70
2021/08/20 05:59:28;;;;;;;2.38;0.93;;;24.40;56.20;;;;;;6337351;28;20019;-70
2021/08/20 06:02:28;;;;;;;1.50;0.90;;;24.40;56.30;;;;;;6315250;28;20032;-70
2021/08/20 06:05:30;;;;;;;3.55;1.35;;;24.40;56.30;;;;;;6331461;28;20145;-70
2021/08/20 06:08:30;;;;;;;0.95;0.88;;;24.40;56.20;;;;;;6336996;28;20055;-70
2021/08/20 06:11:32;;;;;;;1.50;0.90;;;24.40;56.30;;;;;;6340908;28;20400;-71
2021/08/20 06:14:33;;;;;;;2.20;0.82;;;24.40;56.30;;;;;;6327598;28;20028;-70
2021/08/20 06:17:34;;;;;;;2.80;1.13;;;24.40;56.30;;;;;;6325497;28;20020;-71
2021/08/20 06:20:35;;;;;;;1.40;0.90;;;24.40;56.30;;;;;;6321295;28;20134;-70
2021/08/20 06:23:35;;;;;;;2.08;1.30;;;24.40;56.30;;;;;;6318797;28;20507;-70
2021/08/20 06:26:36;;;;;;;1.75;1.05;;;24.40;56.20;;;;;;6318344;28;20066;-70
2021/08/20 06:29:36;;;;;;;1.33;0.80;;;24.40;56.20;;;;;;6318459;28;20046;-70
2021/08/20 06:32:37;;;;;;;1.77;1.20;;;24.40;56.20;;;;;;6343517;28;20040;-70
2021/08/20 06:35:38;;;;;;;1.38;0.95;;;24.40;56.20;;;;;;6336179;28;20081;-70
2021/08/20 06:38:39;;;;;;;1.45;0.90;;;24.40;56.20;;;;;;6318505;28;20040;-70
2021/08/20 06:41:40;;;;;;;1.50;1.00;;;24.40;56.20;;;;;;6334014;28;20415;-70
2021/08/20 06:44:40;;;;;;;3.00;1.20;;;24.40;56.90;;;;;;6343462;28;20031;-70
2021/08/20 06:47:41;;;;;;;2.97;1.20;;;24.40;56.20;;;;;;6325643;28;20061;-70
2021/08/20 06:50:42;;;;;;;1.92;1.33;;;24.40;56.20;;;;;;6343381;28;20053;-70
2021/08/20 06:53:42;;;;;;;2.40;1.00;;;24.40;56.20;;;;;;6327101;28;20097;-70
2021/08/20 06:56:43;;;;;;;2.75;1.10;;;24.40;56.20;;;;;;6346458;28;20560;-70
2021/08/20 06:59:44;;;;;;;1.90;1.08;;;24.40;56.20;;;;;;6346232;28;20058;-70
2021/08/20 07:02:46;;;;;;;2.40;1.05;;;24.40;56.20;;;;;;6346523;28;20069;-70
2021/08/20 07:05:46;;;;;;;1.80;1.15;;;24.40;56.20;;;;;;6324590;28;20030;-70
2021/08/20 07:08:49;;;;;;;2.35;1.17;;;24.40;56.20;;;;;;6321604;28;20024;-69
2021/08/20 07:11:51;;;;;;;2.53;1.08;;;24.40;56.20;;;;;;6331010;28;20043;-69
2021/08/20 07:14:51;;;;;;;1.55;1.02;;;24.40;56.20;;;;;;6315892;28;20028;-69
2021/08/20 07:17:52;;;;;;;2.10;1.30;;;24.40;56.30;;;;;;6331690;28;20113;-69
2021/08/20 07:20:52;;;;;;;2.05;1.08;;;24.40;56.30;;;;;;6345695;28;20476;-70
2021/08/20 07:23:53;;;;;;;1.55;1.00;;;24.40;56.20;;;;;;6345695;28;20024;-70
2021/08/20 07:26:54;;;;;;;1.10;0.80;;;24.40;56.30;;;;;;6345332;28;20042;-69
2021/08/20 07:29:54;;;;;;;2.70;1.23;;;24.40;56.30;;;;;;6345665;28;20036;-69
2021/08/20 07:32:55;;;;;;;1.58;0.95;;;24.40;56.30;;;;;;6342930;28;20070;-69
2021/08/20 07:35:57;;;;;;;2.35;1.00;;;24.40;56.30;;;;;;6318845;28;20505;-69
2021/08/20 07:38:57;;;;;;;1.90;1.10;;;24.30;56.20;;;;;;6344945;28;20031;-69
2021/08/20 07:41:58;;;;;;;2.78;1.15;;;24.30;56.20;;;;;;6343324;28;20481;-69
2021/08/20 07:45:00;;;;;;;1.50;1.10;;;24.40;56.30;;;;;;6345507;28;20020;-69
2021/08/20 07:48:01;;;;;;;1.20;0.90;;;24.40;56.30;;;;;;6343563;28;20032;-69
2021/08/20 07:51:01;;;;;;;2.08;1.13;;;24.40;56.30;;;;;;6343762;28;20055;-69
2021/08/20 07:54:02;;;;;;;1.92;0.93;;;24.40;56.30;;;;;;6344729;28;20023;-70
2021/08/20 07:57:03;;;;;;;1.67;1.13;;;24.40;56.30;;;;;;6332294;28;20106;-69
2021/08/20 08:00:04;;;;;;;1.17;0.90;;;24.30;56.20;;;;;;6319164;28;20103;-70
2021/08/20 08:03:04;;;;;;;1.20;0.82;;;24.40;56.20;;;;;;6333335;28;20524;-69
2021/08/20 08:06:05;;;;;;;1.30;0.80;;;24.40;56.30;;;;;;6345214;28;20023;-69
2021/08/20 08:09:06;;;;;;;1.58;1.08;;;24.40;56.30;;;;;;6325353;28;20362;-70
2021/08/20 08:12:07;;;;;;;1.05;0.93;;;24.30;56.20;;;;;;6318792;28;20346;-69
2021/08/20 08:15:10;;;;;;;1.38;1.08;;;24.30;56.20;;;;;;6309546;28;20036;-70
2021/08/20 08:18:10;;;;;;;1.38;0.95;;;24.40;56.30;;;;;;6303253;28;20035;-69
2021/08/20 08:21:11;;;;;;;0.63;0.63;;;24.30;56.20;;;;;;6318780;28;20028;-69
2021/08/20 08:24:11;;;;;;;1.67;1.05;;;24.30;56.20;;;;;;6318327;28;20492;-70
2021/08/20 08:27:12;;;;;;;1.10;0.80;;;24.40;56.30;;;;;;6317504;28;20416;-69
2021/08/20 08:30:12;;;;;;;0.95;0.75;;;24.40;56.30;;;;;;6341388;28;20028;-69
2021/08/20 08:33:13;;;;;;;1.20;0.93;;;24.40;56.30;;;;;;6342593;28;20031;-69
2021/08/20 08:36:14;;;;;;;1.25;0.88;;;24.30;56.20;;;;;;6344165;28;20047;-70
2021/08/20 08:39:14;;;;;;;1.20;1.00;;;24.30;56.20;;;;;;6328914;28;20102;-69
2021/08/20 08:42:16;;;;;;;1.25;1.00;;;24.30;56.20;;;;;;6317286;28;20030;-69
2021/08/20 08:45:17;;;;;;;1.38;0.63;;;24.30;56.20;;;;;;6318579;28;20012;-69
2021/08/20 08:48:17;;;;;;;1.05;0.80;;;24.30;56.20;;;;;;6322222;28;20028;-69
2021/08/20 08:51:19;;;;;;;0.60;0.60;;;24.40;56.30;;;;;;6343464;28;20089;-69
2021/08/20 08:54:20;;;;;;;0.93;0.80;;;24.40;56.30;;;;;;6343833;28;20058;-70
2021/08/20 08:57:21;;;;;;;1.27;1.13;;;24.40;56.30;;;;;;6341912;28;20047;-69
2021/08/20 09:00:37;;;;;;;1.63;1.00;;;24.40;56.30;;;;;;6342415;28;20158;-69
2021/08/20 09:03:37;;;;;;;1.10;0.93;;;24.40;56.30;;;;;;6339435;28;20016;-70
2021/08/20 09:07:00;;;;;;;0.95;0.80;;;24.30;56.20;;;;;;6318734;28;20057;-69
2021/08/20 09:10:30;;;;;;;1.45;0.85;;;24.30;56.20;;;;;;6325621;28;20664;-70
2021/08/20 09:13:31;;;;;;;1.05;0.93;;;24.30;56.20;;;;;;6319270;28;20119;-69
2021/08/20 09:16:38;;;;;;;1.33;0.93;;;24.40;56.30;;;;;;6318570;28;20032;-69
2021/08/20 09:19:39;;;;;;;1.00;0.90;;;24.40;56.30;;;;;;6326714;28;20119;-70
2021/08/20 09:22:40;;;;;;;1.20;0.90;;;24.40;56.30;;;;;;6341994;28;20012;-69
2021/08/20 09:25:46;;;;;;;1.30;0.90;;;24.30;56.20;;;;;;6325093;28;20024;-69
2021/08/20 09:28:46;;;;;;;1.00;0.90;;;24.30;56.20;;;;;;6316551;28;20117;-70
2021/08/20 09:31:54;;;;;;;1.13;0.90;;;24.30;56.20;;;;;;6317882;28;20024;-69
2021/08/20 09:34:59;;;;;;;1.33;0.80;;;24.30;56.20;;;;;;6329971;28;20496;-69
2021/08/20 09:38:13;;;;;;;1.15;0.82;;;24.30;56.20;;;;;;6348472;28;20473;-69
2021/08/20 09:41:16;;;;;;;0.93;0.70;;;24.40;56.30;;;;;;6348378;28;20047;-70
2021/08/20 09:44:24;;;;;;;0.70;0.60;;;24.30;56.20;;;;;;6347845;28;20048;-70
2021/08/20 09:47:25;;;;;;;1.00;0.82;;;24.40;56.30;;;;;;6348072;28;20503;-69
2021/08/20 09:50:41;;;;;;;1.02;0.90;;;24.30;56.20;;;;;;6347048;28;20030;-70
2021/08/20 09:53:55;;;;;;;0.95;0.85;;;24.30;56.20;;;;;;6347831;28;20120;-69
2021/08/20 09:56:58;;;;;;;1.63;0.90;;;24.40;56.30;;;;;;6347122;28;20052;-69
2021/08/20 09:59:58;;;;;;;1.00;0.90;;;24.30;56.20;;;;;;6347294;28;20020;-69
2021/08/20 10:03:01;;;;;;;1.33;1.00;;;24.30;56.20;;;;;;6347770;28;20511;-70
2021/08/20 10:06:03;;;;;;;1.80;0.80;;;24.30;56.20;;;;;;6339285;28;20038;-72
2021/08/20 10:09:13;;;;;;;0.95;0.75;;;24.30;56.20;;;;;;6348555;28;20026;-71
2021/08/20 10:12:22;;;;;;;0.98;0.80;;;24.30;56.20;;;;;;6349537;28;20016;-72
2021/08/20 10:15:24;;;;;;;1.05;0.80;;;24.40;56.30;;;;;;6342579;28;20023;-70
2021/08/20 10:18:25;;;;;;;0.68;0.68;;;24.30;56.20;;;;;;6322994;28;20021;-71
2021/08/20 10:21:28;;;;;;;0.77;0.77;;;24.30;56.20;;;;;;6324095;28;20027;-71
2021/08/20 10:24:28;;;;;;;1.05;0.80;;;24.30;56.20;;;;;;6324289;28;20055;-72
2021/08/20 10:27:36;;;;;;;1.08;0.88;;;24.40;56.30;;;;;;6323180;28;20369;-71
2021/08/20 10:30:37;;;;;;;0.95;0.77;;;24.40;56.30;;;;;;6295693;28;20103;-72
2021/08/20 10:33:37;;;;;;;0.98;0.80;;;24.40;56.20;;;;;;6278498;28;20037;-70
2021/08/20 10:36:40;;;;;;;0.82;0.73;;;24.40;56.30;;;;;;6278661;28;20051;-71
2021/08/20 10:39:45;;;;;;;1.10;0.90;;;24.40;56.20;;;;;;6279122;28;20508;-72
2021/08/20 10:42:48;;;;;;;0.90;0.60;;;24.40;56.20;;;;;;6295346;28;20124;-71
2021/08/20 10:45:48;;;;;;;0.80;0.70;;;24.40;56.20;;;;;;6271250;28;20029;-72
2021/08/20 10:52:26;;;;;;;1.65;0.98;;;24.30;56.10;;;;;;6270317;28;20040;-72
2021/08/20 10:55:34;;;;;;;0.82;0.70;;;24.40;56.30;;;;;;6253174;28;20040;-72
2021/08/20 10:58:41;;;;;;;1.00;0.90;;;24.30;56.10;;;;;;6269717;28;20037;-72
2021/08/20 11:01:41;;;;;;;0.82;0.70;;;24.30;56.20;;;;;;6287526;28;20032;-71
2021/08/20 11:05:08;;;;;;;1.13;0.88;;;24.30;56.20;;;;;;6296632;28;20054;-71
2021/08/20 11:08:26;;;;;;;0.95;0.60;;;24.40;56.30;;;;;;6297533;28;20024;-72
2021/08/20 11:11:44;;;;;;;0.95;0.80;;;24.40;56.30;;;;;;6302458;28;20504;-71
2021/08/20 11:14:45;;;;;;;1.00;0.73;;;24.30;56.20;;;;;;6322737;28;20024;-71
2021/08/20 11:17:52;;;;;;;0.68;0.50;;;24.40;56.30;;;;;;6323041;28;20024;-72
2021/08/20 11:20:53;;;;;;;0.60;0.60;;;24.40;56.30;;;;;;6323021;28;20481;-71
2021/08/20 11:24:10;;;;;;;0.93;0.80;;;24.30;56.20;;;;;;6322222;28;20081;-72
2021/08/20 11:27:14;;;;;;;0.90;0.80;;;24.40;56.30;;;;;;6321024;28;20039;-71
2021/08/20 11:30:16;;;;;;;0.80;0.70;;;24.40;56.30;;;;;;6322738;28;20046;-72
2021/08/20 11:33:20;;;;;;;0.70;0.70;;;24.30;56.20;;;;;;6320931;28;20123;-72
2021/08/20 11:36:22;;;;;;;1.10;0.70;;;24.30;56.20;;;;;;6322801;28;20257;-72
2021/08/20 11:39:23;;;;;;;1.10;0.90;;;24.30;56.20;;;;;;6321328;28;20054;-72
2021/08/20 11:42:24;;;;;;;1.23;0.90;;;24.30;56.20;;;;;;6320853;28;20028;-72
2021/08/20 11:45:24;;;;;;;0.80;0.70;;;24.30;56.20;;;;;;6336882;28;20055;-71
2021/08/20 11:48:25;;;;;;;0.80;0.70;;;24.30;56.20;;;;;;6329733;28;20436;-72
2021/08/20 11:51:27;;;;;;;0.90;0.70;;;24.40;56.30;;;;;;6321741;28;20024;-71
2021/08/20 11:54:34;;;;;;;0.80;0.75;;;24.40;56.30;;;;;;6295575;28;20106;-71
2021/08/20 11:57:38;;;;;;;0.90;0.75;;;24.30;56.20;;;;;;6313133;28;20565;-72
2021/08/20 12:00:39;;;;;;;1.03;0.90;;;24.30;56.20;;;;;;6321315;28;20473;-72
2021/08/20 12:03:47;;;;;;;0.47;0.47;;;24.30;56.20;;;;;;6320203;28;20020;-72
2021/08/20 12:06:47;;;;;;;0.80;0.73;;;24.30;56.20;;;;;;6322010;28;20030;-72
2021/08/20 12:09:59;;;;;;;0.80;0.70;;;24.30;56.20;;;;;;6321595;28;20388;-72
2021/08/20 12:12:59;;;;;;;0.73;0.70;;;24.40;56.30;;;;;;6326838;28;20024;-71
2021/08/20 12:16:00;;;;;;;0.77;0.60;;;24.30;56.20;;;;;;6345553;28;20080;-70
2021/08/20 12:19:22;;;;;;;0.88;0.70;;;24.30;56.20;;;;;;6346585;28;20024;-71
2021/08/20 12:22:36;;;;;;;0.95;0.77;;;24.30;56.20;;;;;;6345465;28;20487;-71
2021/08/20 12:25:41;;;;;;;0.98;0.90;;;24.30;56.20;;;;;;6345737;28;20137;-72
2021/08/20 12:28:41;;;;;;;1.55;0.73;;;24.40;56.30;;;;;;6346201;28;20028;-71
2021/08/20 12:31:56;;;;;;;0.90;0.68;;;24.30;56.20;;;;;;6345088;28;20519;-72
2021/08/20 12:34:59;;;;;;;0.60;0.60;;;24.30;56.10;;;;;;6346011;28;20027;-72
2021/08/20 12:38:02;;;;;;;0.60;0.60;;;24.30;56.90;;;;;;6345982;28;20028;-72
2021/08/20 12:41:03;;;;;;;1.08;0.70;;;24.30;56.20;;;;;;6346206;28;20022;-70
2021/08/20 12:44:05;;;;;;;1.27;0.60;;;24.30;56.20;;;;;;6346200;28;20027;-72
2021/08/20 12:47:07;;;;;;;0.82;0.70;;;24.30;56.20;;;;;;6344473;28;20114;-72
2021/08/20 12:50:13;;;;;;;0.93;0.70;;;24.30;56.20;;;;;;6326094;28;20111;-72
2021/08/20 12:53:15;;;;;;;0.60;0.60;;;24.30;56.20;;;;;;6319473;28;20031;-72
2021/08/20 12:56:29;;;;;;;0.60;0.60;;;24.30;56.20;;;;;;6318663;28;20459;-71
2021/08/20 12:59:29;;;;;;;0.75;0.60;;;24.30;56.20;;;;;;6320562;28;20055;-70
2021/08/20 13:02:30;;;;;;;0.77;0.68;;;24.30;56.20;;;;;;6318838;28;20066;-72
2021/08/20 13:05:31;;;;;;;1.30;0.60;;;24.30;56.30;;;;;;6319039;28;20020;-72
2021/08/20 13:08:32;;;;;;;1.00;0.80;;;24.30;56.20;;;;;;6318628;28;20039;-72
2021/08/20 13:11:33;;;;;;;0.52;0.52;;;24.30;56.20;;;;;;6320611;28;20030;-72
2021/08/20 13:14:34;;;;;;;0.70;0.70;;;24.30;56.20;;;;;;6312262;28;20579;-71
2021/08/20 13:17:34;;;;;;;0.88;0.80;;;24.30;56.20;;;;;;6295286;28;20028;-71
2021/08/20 13:20:35;;;;;;;1.13;0.82;;;24.30;56.20;;;;;;6310477;28;20590;-72
2021/08/20 13:23:37;;;;;;;1.60;0.80;;;24.30;56.20;;;;;;6318913;28;20031;-72
2021/08/20 13:26:38;;;;;;;0.93;0.70;;;24.30;56.20;;;;;;6342111;28;20024;-72
2021/08/20 13:29:38;;;;;;;0.82;0.75;;;24.30;56.20;;;;;;6345123;28;20093;-72
2021/08/20 13:32:39;;;;;;;0.70;0.68;;;24.40;56.30;;;;;;6344089;28;20244;-72
2021/08/20 13:35:40;;;;;;;0.68;0.68;;;24.30;56.20;;;;;;6330174;28;20401;-71
2021/08/20 13:38:41;;;;;;;0.70;0.70;;;24.30;56.20;;;;;;6318709;28;20389;-72
2021/08/20 13:41:42;;;;;;;0.70;0.70;;;24.40;56.30;;;;;;6318520;28;20013;-72
2021/08/20 13:44:42;;;;;;;0.93;0.80;;;24.30;56.20;;;;;;6325721;28;20101;-72
2021/08/20 13:47:43;;;;;;;0.90;0.80;;;24.40;56.30;;;;;;6319706;28;20020;-71
2021/08/20 13:50:45;;;;;;;0.95;0.73;;;24.30;56.20;;;;;;6318533;28;20507;-72
2021/08/20 13:53:45;;;;;;;0.93;0.70;;;24.30;56.90;;;;;;6318917;28;20036;-72
2021/08/20 13:56:46;;;;;;;1.10;0.82;;;24.30;56.20;;;;;;6318272;28;20044;-72
2021/08/20 13:59:47;;;;;;;0.93;0.80;;;24.40;56.20;;;;;;6322434;28;20510;-71
2021/08/20 14:02:49;;;;;;;0.90;0.70;;;24.30;56.20;;;;;;6343284;28;20016;-71
2021/08/20 14:05:49;;;;;;;0.85;0.80;;;24.30;56.20;;;;;;6341170;28;20464;-72
2021/08/20 14:08:50;;;;;;;1.02;0.90;;;24.40;56.30;;;;;;6319449;28;20170;-72
2021/08/20 14:11:50;;;;;;;1.05;0.75;;;24.30;56.20;;;;;;6336604;28;20165;-72
2021/08/20 14:14:51;;;;;;;0.60;0.60;;;24.30;56.20;;;;;;6344969;28;20023;-71
2021/08/20 14:17:51;;;;;;;0.70;0.70;;;24.30;56.20;;;;;;6345299;28;20034;-72
2021/08/20 14:20:52;;;;;;;1.60;0.73;;;24.30;56.20;;;;;;6346641;28;20070;-72
2021/08/20 14:23:53;;;;;;;1.10;0.60;;;24.40;56.30;;;;;;6347842;28;20100;-72
2021/08/20 14:26:53;;;;;;;0.90;0.70;;;24.40;56.30;;;;;;6332462;28;20028;-72
2021/08/20 14:29:54;;;;;;;0.60;0.60;;;24.30;56.20;;;;;;6323739;28;20401;-71
2021/08/20 14:32:55;;;;;;;0.65;0.65;;;24.40;56.30;;;;;;6322230;28;20496;-71
2021/08/20 14:35:55;;;;;;;1.00;0.70;;;24.30;56.30;;;;;;6323350;28;20055;-71
2021/08/20 14:38:56;;;;;;;0.98;0.85;;;24.40;56.30;;;;;;6323409;28;20115;-72
2021/08/20 14:41:59;;;;;;;0.60;0.57;;;24.30;56.20;;;;;;6322286;28;20027;-72
2021/08/20 14:45:01;;;;;;;0.95;0.70;;;24.30;56.30;;;;;;6327938;28;20480;-68
2021/08/20 14:48:04;;;;;;;1.35;0.70;;;24.30;56.20;;;;;;6327863;28;20024;-69
2021/08/20 14:51:05;;;;;;;4.35;0.98;;;24.40;56.30;;;;;;6319891;28;20028;-68
2021/08/20 14:54:06;;;;;;;6.57;1.00;;;24.30;56.20;;;;;;6318757;28;20035;-69
2021/08/20 14:57:07;;;;;;;4.18;1.10;;;24.30;56.10;;;;;;6330190;28;20384;-69
2021/08/20 15:00:08;;;;;;;0.98;0.88;;;24.30;55.60;;;;;;6318850;28;20033;-69
2021/08/20 15:03:08;;;;;;;2.45;1.00;;;24.30;55.50;;;;;;6334986;28;20027;-69
2021/08/20 15:06:10;;;;;;;1.95;1.00;;;24.40;55.60;;;;;;6322995;28;20023;-70
2021/08/20 15:09:10;;;;;;;1.95;1.35;;;24.30;55.60;;;;;;6342782;28;20034;-70
2021/08/20 15:12:11;;;;;;;7.90;1.25;;;24.30;55.80;;;;;;6339728;28;20461;-69
2021/08/20 15:15:12;;;;;;;8.70;1.10;;;24.40;56.00;;;;;;6324757;28;20383;-70
2021/08/20 15:18:12;;;;;;;2.03;1.30;;;24.40;56.00;;;;;;6317687;28;20117;-70
2021/08/20 15:21:13;;;;;;;4.32;1.35;;;24.40;56.00;;;;;;6318851;28;20024;-69
2021/08/20 15:24:14;;;;;;;4.22;1.25;;;24.40;55.90;;;;;;6344065;28;20050;-67
2021/08/20 15:27:15;;;;;;;2.33;1.48;;;24.30;55.90;;;;;;6337177;28;20028;-67
2021/08/20 15:30:16;;;;;;;7.05;1.63;;;24.40;56.00;;;;;;6320247;28;20016;-67
2021/08/20 15:33:17;;;;;;;3.40;1.50;;;24.40;56.00;;;;;;6335718;28;20567;-67
2021/08/20 15:36:17;;;;;;;3.13;1.50;;;24.40;56.00;;;;;;6345644;28;20094;-67
2021/08/20 15:39:18;;;;;;;3.50;1.83;;;24.40;56.00;;;;;;6337695;28;20024;-69
2021/08/20 15:42:19;;;;;;;3.40;1.73;;;24.40;56.00;;;;;;6318382;28;20028;-68
2021/08/20 15:45:19;;;;;;;2.35;1.60;;;24.30;55.90;;;;;;6318380;28;20452;-69
2021/08/20 15:48:20;;;;;;;4.28;1.55;;;24.40;56.00;;;;;;6335054;28;20373;-69
2021/08/20 15:51:21;;;;;;;4.07;1.80;;;24.30;55.90;;;;;;6327183;28;20473;-70